sensor_id;sensor_type;location;lat;lon;timestamp;P1;durP1;ratioP1;P2;durP2;ratioP2
3704;SDS011;1868;48.918;9.438;2023-02-28T00:01:47;2.40;;;1.60;;
3704;SDS011;1868;48.918;9.438;2023-02-28T00:04:15;2.90;;;1.90;;
3704;SDS011;1868;48.918;9.438;2023-02-28T00:06:44;3.03;;;1.63;;
3704;SDS011;1868;48.918;9.438;2023-02-28T00:09:14;2.90;;;2.20;;
3704;SDS011;1868;48.918;9.438;2023-02-28T00:11:42;1.77;;;1.53;;
3704;SDS011;1868;48.918;9.438;2023-02-28T00:14:10;1.73;;;1.60;;
3704;SDS011;1868;48.918;9.438;2023-02-28T00:16:38;3.77;;;2.50;;
3704;SDS011;1868;48.918;9.438;2023-02-28T00:19:07;1.50;;;1.40;;
3704;SDS011;1868;48.918;9.438;2023-02-28T00:21:35;2.90;;;2.33;;
3704;SDS011;1868;48.918;9.438;2023-02-28T00:24:07;2.80;;;2.00;;
3704;SDS011;1868;48.918;9.438;2023-02-28T00:26:36;2.97;;;1.77;;
3704;SDS011;1868;48.918;9.438;2023-02-28T00:29:05;2.33;;;2.10;;
3704;SDS011;1868;48.918;9.438;2023-02-28T00:31:33;1.70;;;1.60;;
3704;SDS011;1868;48.918;9.438;2023-02-28T00:34:02;6.37;;;2.33;;
3704;SDS011;1868;48.918;9.438;2023-02-28T00:36:31;3.20;;;2.80;;
3704;SDS011;1868;48.918;9.438;2023-02-28T00:39:02;2.40;;;2.20;;
3704;SDS011;1868;48.918;9.438;2023-02-28T00:41:33;5.13;;;1.67;;
3704;SDS011;1868;48.918;9.438;2023-02-28T00:44:02;8.70;;;2.23;;
3704;SDS011;1868;48.918;9.438;2023-02-28T00:46:31;4.33;;;2.07;;
3704;SDS011;1868;48.918;9.438;2023-02-28T00:48:59;2.53;;;2.33;;
3704;SDS011;1868;48.918;9.438;2023-02-28T00:51:27;3.40;;;2.23;;
3704;SDS011;1868;48.918;9.438;2023-02-28T00:53:56;3.63;;;2.10;;
3704;SDS011;1868;48.918;9.438;2023-02-28T00:56:24;3.40;;;1.80;;
3704;SDS011;1868;48.918;9.438;2023-02-28T00:58:53;2.47;;;2.27;;
3704;SDS011;1868;48.918;9.438;2023-02-28T01:01:23;3.10;;;2.50;;
3704;SDS011;1868;48.918;9.438;2023-02-28T01:03:52;3.80;;;2.40;;
3704;SDS011;1868;48.918;9.438;2023-02-28T01:06:20;5.50;;;2.37;;
3704;SDS011;1868;48.918;9.438;2023-02-28T01:08:49;3.13;;;2.50;;
3704;SDS011;1868;48.918;9.438;2023-02-28T01:11:17;2.83;;;2.63;;
3704;SDS011;1868;48.918;9.438;2023-02-28T01:13:46;4.30;;;2.20;;
3704;SDS011;1868;48.918;9.438;2023-02-28T01:16:14;4.00;;;2.37;;
3704;SDS011;1868;48.918;9.438;2023-02-28T01:18:45;3.37;;;2.97;;
3704;SDS011;1868;48.918;9.438;2023-02-28T01:21:16;2.90;;;2.47;;
3704;SDS011;1868;48.918;9.438;2023-02-28T01:23:46;2.63;;;2.40;;
3704;SDS011;1868;48.918;9.438;2023-02-28T01:26:17;2.40;;;2.20;;
3704;SDS011;1868;48.918;9.438;2023-02-28T01:28:47;2.93;;;2.23;;
3704;SDS011;1868;48.918;9.438;2023-02-28T01:31:17;2.30;;;2.10;;
3704;SDS011;1868;48.918;9.438;2023-02-28T01:33:49;2.30;;;2.20;;
3704;SDS011;1868;48.918;9.438;2023-02-28T01:36:18;2.53;;;2.33;;
3704;SDS011;1868;48.918;9.438;2023-02-28T01:38:48;2.50;;;2.30;;
3704;SDS011;1868;48.918;9.438;2023-02-28T01:41:20;3.20;;;2.63;;
3704;SDS011;1868;48.918;9.438;2023-02-28T01:43:57;2.63;;;2.50;;
3704;SDS011;1868;48.918;9.438;2023-02-28T01:46:32;4.40;;;2.80;;
3704;SDS011;1868;48.918;9.438;2023-02-28T01:49:05;2.13;;;2.03;;
3704;SDS011;1868;48.918;9.438;2023-02-28T01:51:37;2.07;;;1.90;;
3704;SDS011;1868;48.918;9.438;2023-02-28T01:54:12;4.53;;;2.80;;
3704;SDS011;1868;48.918;9.438;2023-02-28T01:56:47;7.17;;;3.67;;
3704;SDS011;1868;48.918;9.438;2023-02-28T01:59:21;3.00;;;2.73;;
3704;SDS011;1868;48.918;9.438;2023-02-28T02:01:54;2.23;;;2.13;;
3704;SDS011;1868;48.918;9.438;2023-02-28T02:04:25;4.97;;;2.10;;
3704;SDS011;1868;48.918;9.438;2023-02-28T02:07:01;4.00;;;2.70;;
3704;SDS011;1868;48.918;9.438;2023-02-28T02:09:30;5.03;;;2.83;;
3704;SDS011;1868;48.918;9.438;2023-02-28T02:11:59;2.97;;;2.73;;
3704;SDS011;1868;48.918;9.438;2023-02-28T02:14:40;2.60;;;2.07;;
3704;SDS011;1868;48.918;9.438;2023-02-28T02:17:22;2.93;;;2.57;;
3704;SDS011;1868;48.918;9.438;2023-02-28T02:23:22;3.33;;;3.03;;
3704;SDS011;1868;48.918;9.438;2023-02-28T02:26:55;2.73;;;2.30;;
3704;SDS011;1868;48.918;9.438;2023-02-28T02:29:46;3.03;;;2.67;;
3704;SDS011;1868;48.918;9.438;2023-02-28T02:33:02;2.80;;;2.50;;
3704;SDS011;1868;48.918;9.438;2023-02-28T02:36:13;3.23;;;2.67;;
3704;SDS011;1868;48.918;9.438;2023-02-28T02:38:47;5.23;;;3.43;;
3704;SDS011;1868;48.918;9.438;2023-02-28T02:41:23;3.50;;;3.03;;
3704;SDS011;1868;48.918;9.438;2023-02-28T02:43:58;2.70;;;2.50;;
3704;SDS011;1868;48.918;9.438;2023-02-28T02:46:34;3.97;;;2.57;;
3704;SDS011;1868;48.918;9.438;2023-02-28T02:49:06;2.80;;;2.60;;
3704;SDS011;1868;48.918;9.438;2023-02-28T02:51:40;3.10;;;2.80;;
3704;SDS011;1868;48.918;9.438;2023-02-28T02:54:11;2.60;;;2.40;;
3704;SDS011;1868;48.918;9.438;2023-02-28T02:56:45;3.30;;;2.40;;
3704;SDS011;1868;48.918;9.438;2023-02-28T02:59:17;2.73;;;2.53;;
3704;SDS011;1868;48.918;9.438;2023-02-28T03:01:51;4.20;;;3.30;;
3704;SDS011;1868;48.918;9.438;2023-02-28T03:04:24;3.20;;;2.90;;
3704;SDS011;1868;48.918;9.438;2023-02-28T03:06:59;5.77;;;3.40;;
3704;SDS011;1868;48.918;9.438;2023-02-28T03:09:27;3.53;;;3.20;;
3704;SDS011;1868;48.918;9.438;2023-02-28T03:11:55;3.03;;;2.83;;
3704;SDS011;1868;48.918;9.438;2023-02-28T03:14:33;4.47;;;3.27;;
3704;SDS011;1868;48.918;9.438;2023-02-28T03:17:29;3.27;;;2.90;;
3704;SDS011;1868;48.918;9.438;2023-02-28T03:20:15;4.90;;;3.13;;
3704;SDS011;1868;48.918;9.438;2023-02-28T03:23:00;4.73;;;3.17;;
3704;SDS011;1868;48.918;9.438;2023-02-28T03:25:41;3.60;;;3.30;;
3704;SDS011;1868;48.918;9.438;2023-02-28T03:28:24;3.23;;;2.60;;
3704;SDS011;1868;48.918;9.438;2023-02-28T03:31:00;3.77;;;3.47;;
3704;SDS011;1868;48.918;9.438;2023-02-28T03:33:36;3.90;;;3.50;;
3704;SDS011;1868;48.918;9.438;2023-02-28T03:36:10;4.93;;;4.20;;
3704;SDS011;1868;48.918;9.438;2023-02-28T03:38:45;3.03;;;2.80;;
3704;SDS011;1868;48.918;9.438;2023-02-28T03:41:17;3.93;;;2.80;;
3704;SDS011;1868;48.918;9.438;2023-02-28T03:43:51;5.23;;;2.97;;
3704;SDS011;1868;48.918;9.438;2023-02-28T03:46:24;4.73;;;3.93;;
3704;SDS011;1868;48.918;9.438;2023-02-28T03:48:57;13.83;;;3.60;;
3704;SDS011;1868;48.918;9.438;2023-02-28T03:51:30;4.23;;;3.30;;
3704;SDS011;1868;48.918;9.438;2023-02-28T03:54:02;6.10;;;2.97;;
3704;SDS011;1868;48.918;9.438;2023-02-28T03:56:37;5.37;;;3.90;;
3704;SDS011;1868;48.918;9.438;2023-02-28T03:59:10;4.20;;;3.23;;
3704;SDS011;1868;48.918;9.438;2023-02-28T04:01:44;4.13;;;3.70;;
3704;SDS011;1868;48.918;9.438;2023-02-28T04:04:15;5.00;;;3.83;;
3704;SDS011;1868;48.918;9.438;2023-02-28T04:06:44;3.90;;;3.60;;
3704;SDS011;1868;48.918;9.438;2023-02-28T04:09:14;4.73;;;3.27;;
3704;SDS011;1868;48.918;9.438;2023-02-28T04:11:43;5.43;;;3.63;;
3704;SDS011;1868;48.918;9.438;2023-02-28T04:14:18;5.37;;;3.60;;
3704;SDS011;1868;48.918;9.438;2023-02-28T04:16:47;4.20;;;3.43;;
3704;SDS011;1868;48.918;9.438;2023-02-28T04:19:17;4.70;;;3.43;;
3704;SDS011;1868;48.918;9.438;2023-02-28T04:21:48;5.70;;;3.90;;
3704;SDS011;1868;48.918;9.438;2023-02-28T04:24:20;3.97;;;3.63;;
3704;SDS011;1868;48.918;9.438;2023-02-28T04:26:51;4.30;;;3.90;;
3704;SDS011;1868;48.918;9.438;2023-02-28T04:29:22;4.23;;;3.83;;
3704;SDS011;1868;48.918;9.438;2023-02-28T04:31:52;4.80;;;3.67;;
3704;SDS011;1868;48.918;9.438;2023-02-28T04:34:21;4.40;;;3.37;;
3704;SDS011;1868;48.918;9.438;2023-02-28T04:36:49;5.17;;;3.40;;
3704;SDS011;1868;48.918;9.438;2023-02-28T04:39:39;3.63;;;3.33;;
3704;SDS011;1868;48.918;9.438;2023-02-28T04:42:08;5.63;;;3.30;;
3704;SDS011;1868;48.918;9.438;2023-02-28T04:44:37;4.87;;;3.83;;
3704;SDS011;1868;48.918;9.438;2023-02-28T04:47:05;4.83;;;3.43;;
3704;SDS011;1868;48.918;9.438;2023-02-28T04:49:34;5.40;;;3.47;;
3704;SDS011;1868;48.918;9.438;2023-02-28T04:52:02;4.83;;;4.33;;
3704;SDS011;1868;48.918;9.438;2023-02-28T04:54:31;5.10;;;4.03;;
3704;SDS011;1868;48.918;9.438;2023-02-28T04:57:00;5.23;;;3.90;;
3704;SDS011;1868;48.918;9.438;2023-02-28T04:59:30;4.27;;;3.47;;
3704;SDS011;1868;48.918;9.438;2023-02-28T05:01:59;4.23;;;3.87;;
3704;SDS011;1868;48.918;9.438;2023-02-28T05:04:33;4.50;;;3.80;;
3704;SDS011;1868;48.918;9.438;2023-02-28T05:07:02;6.30;;;3.90;;
3704;SDS011;1868;48.918;9.438;2023-02-28T05:09:31;6.90;;;3.60;;
3704;SDS011;1868;48.918;9.438;2023-02-28T05:12:02;4.53;;;3.90;;
3704;SDS011;1868;48.918;9.438;2023-02-28T05:14:30;3.90;;;3.60;;
3704;SDS011;1868;48.918;9.438;2023-02-28T05:16:59;4.80;;;3.87;;
3704;SDS011;1868;48.918;9.438;2023-02-28T05:19:27;5.17;;;3.93;;
3704;SDS011;1868;48.918;9.438;2023-02-28T05:21:55;7.53;;;4.00;;
3704;SDS011;1868;48.918;9.438;2023-02-28T05:24:24;5.00;;;4.10;;
3704;SDS011;1868;48.918;9.438;2023-02-28T05:26:53;4.47;;;4.10;;
3704;SDS011;1868;48.918;9.438;2023-02-28T05:29:24;7.43;;;5.10;;
3704;SDS011;1868;48.918;9.438;2023-02-28T05:31:53;12.13;;;8.00;;
3704;SDS011;1868;48.918;9.438;2023-02-28T05:34:21;6.40;;;4.13;;
3704;SDS011;1868;48.918;9.438;2023-02-28T05:36:49;4.53;;;4.13;;
3704;SDS011;1868;48.918;9.438;2023-02-28T05:39:18;5.90;;;4.73;;
3704;SDS011;1868;48.918;9.438;2023-02-28T05:41:46;5.37;;;4.53;;
3704;SDS011;1868;48.918;9.438;2023-02-28T05:44:15;4.87;;;4.00;;
3704;SDS011;1868;48.918;9.438;2023-02-28T05:46:45;5.00;;;4.10;;
3704;SDS011;1868;48.918;9.438;2023-02-28T05:49:14;5.70;;;4.40;;
3704;SDS011;1868;48.918;9.438;2023-02-28T05:51:43;6.17;;;5.07;;
3704;SDS011;1868;48.918;9.438;2023-02-28T05:54:11;8.80;;;5.10;;
3704;SDS011;1868;48.918;9.438;2023-02-28T05:56:40;5.93;;;4.37;;
3704;SDS011;1868;48.918;9.438;2023-02-28T05:59:14;5.67;;;4.77;;
3704;SDS011;1868;48.918;9.438;2023-02-28T06:01:43;6.40;;;4.47;;
3704;SDS011;1868;48.918;9.438;2023-02-28T06:04:16;7.03;;;4.70;;
3704;SDS011;1868;48.918;9.438;2023-02-28T06:06:57;8.00;;;5.40;;
3704;SDS011;1868;48.918;9.438;2023-02-28T06:09:26;5.20;;;4.70;;
3704;SDS011;1868;48.918;9.438;2023-02-28T06:11:57;6.10;;;4.67;;
3704;SDS011;1868;48.918;9.438;2023-02-28T06:14:26;6.90;;;5.10;;
3704;SDS011;1868;48.918;9.438;2023-02-28T06:16:57;8.57;;;4.87;;
3704;SDS011;1868;48.918;9.438;2023-02-28T06:19:27;7.80;;;5.40;;
3704;SDS011;1868;48.918;9.438;2023-02-28T06:21:58;6.33;;;4.97;;
3704;SDS011;1868;48.918;9.438;2023-02-28T06:24:26;3.93;;;3.50;;
3704;SDS011;1868;48.918;9.438;2023-02-28T06:26:55;6.00;;;4.70;;
3704;SDS011;1868;48.918;9.438;2023-02-28T06:29:25;6.77;;;4.57;;
3704;SDS011;1868;48.918;9.438;2023-02-28T06:31:54;6.33;;;4.80;;
3704;SDS011;1868;48.918;9.438;2023-02-28T06:34:23;6.30;;;4.30;;
3704;SDS011;1868;48.918;9.438;2023-02-28T06:36:52;8.13;;;5.33;;
3704;SDS011;1868;48.918;9.438;2023-02-28T06:39:20;6.70;;;4.50;;
3704;SDS011;1868;48.918;9.438;2023-02-28T06:41:49;5.63;;;4.13;;
3704;SDS011;1868;48.918;9.438;2023-02-28T06:44:21;8.33;;;4.60;;
3704;SDS011;1868;48.918;9.438;2023-02-28T06:46:51;8.43;;;5.30;;
3704;SDS011;1868;48.918;9.438;2023-02-28T06:49:19;12.00;;;5.07;;
3704;SDS011;1868;48.918;9.438;2023-02-28T06:51:50;7.20;;;5.00;;
3704;SDS011;1868;48.918;9.438;2023-02-28T06:54:18;7.33;;;4.43;;
3704;SDS011;1868;48.918;9.438;2023-02-28T06:56:48;5.93;;;4.80;;
3704;SDS011;1868;48.918;9.438;2023-02-28T06:59:17;6.90;;;5.07;;
3704;SDS011;1868;48.918;9.438;2023-02-28T07:01:45;5.47;;;4.83;;
3704;SDS011;1868;48.918;9.438;2023-02-28T07:04:14;5.47;;;4.60;;
3704;SDS011;1868;48.918;9.438;2023-02-28T07:06:42;6.30;;;4.80;;
3704;SDS011;1868;48.918;9.438;2023-02-28T07:09:12;7.20;;;5.13;;
3704;SDS011;1868;48.918;9.438;2023-02-28T07:11:40;6.20;;;5.37;;
3704;SDS011;1868;48.918;9.438;2023-02-28T07:14:10;5.90;;;5.23;;
3704;SDS011;1868;48.918;9.438;2023-02-28T07:16:38;6.17;;;5.50;;
3704;SDS011;1868;48.918;9.438;2023-02-28T07:19:06;6.73;;;5.00;;
3704;SDS011;1868;48.918;9.438;2023-02-28T07:21:35;5.90;;;5.40;;
3704;SDS011;1868;48.918;9.438;2023-02-28T07:24:03;5.70;;;5.10;;
3704;SDS011;1868;48.918;9.438;2023-02-28T07:26:34;5.47;;;4.93;;
3704;SDS011;1868;48.918;9.438;2023-02-28T07:29:03;6.80;;;4.83;;
3704;SDS011;1868;48.918;9.438;2023-02-28T07:31:32;6.10;;;4.97;;
3704;SDS011;1868;48.918;9.438;2023-02-28T07:34:00;6.20;;;4.93;;
3704;SDS011;1868;48.918;9.438;2023-02-28T07:36:30;7.40;;;4.90;;
3704;SDS011;1868;48.918;9.438;2023-02-28T07:38:59;6.83;;;5.53;;
3704;SDS011;1868;48.918;9.438;2023-02-28T07:41:27;7.10;;;5.60;;
3704;SDS011;1868;48.918;9.438;2023-02-28T07:43:58;8.70;;;5.37;;
3704;SDS011;1868;48.918;9.438;2023-02-28T07:46:27;6.47;;;5.20;;
3704;SDS011;1868;48.918;9.438;2023-02-28T07:49:02;5.47;;;4.93;;
3704;SDS011;1868;48.918;9.438;2023-02-28T07:51:31;7.70;;;5.23;;
3704;SDS011;1868;48.918;9.438;2023-02-28T07:54:00;7.97;;;5.57;;
3704;SDS011;1868;48.918;9.438;2023-02-28T07:56:28;9.20;;;6.27;;
3704;SDS011;1868;48.918;9.438;2023-02-28T07:58:58;8.10;;;5.90;;
3704;SDS011;1868;48.918;9.438;2023-02-28T08:01:27;7.37;;;5.60;;
3704;SDS011;1868;48.918;9.438;2023-02-28T08:03:57;11.10;;;6.20;;
3704;SDS011;1868;48.918;9.438;2023-02-28T08:06:25;9.90;;;6.03;;
3704;SDS011;1868;48.918;9.438;2023-02-28T08:08:53;7.13;;;6.20;;
3704;SDS011;1868;48.918;9.438;2023-02-28T08:11:24;13.10;;;6.40;;
3704;SDS011;1868;48.918;9.438;2023-02-28T08:13:52;7.40;;;6.13;;
3704;SDS011;1868;48.918;9.438;2023-02-28T08:16:23;7.60;;;5.73;;
3704;SDS011;1868;48.918;9.438;2023-02-28T08:18:52;7.30;;;6.00;;
3704;SDS011;1868;48.918;9.438;2023-02-28T08:21:21;7.40;;;5.77;;
3704;SDS011;1868;48.918;9.438;2023-02-28T08:23:50;8.30;;;5.50;;
3704;SDS011;1868;48.918;9.438;2023-02-28T08:26:20;9.57;;;5.80;;
3704;SDS011;1868;48.918;9.438;2023-02-28T08:28:48;9.07;;;6.13;;
3704;SDS011;1868;48.918;9.438;2023-02-28T08:31:17;13.63;;;6.30;;
3704;SDS011;1868;48.918;9.438;2023-02-28T08:33:47;11.17;;;7.00;;
3704;SDS011;1868;48.918;9.438;2023-02-28T08:36:18;8.20;;;6.10;;
3704;SDS011;1868;48.918;9.438;2023-02-28T08:38:47;8.97;;;5.60;;
3704;SDS011;1868;48.918;9.438;2023-02-28T08:41:15;10.63;;;6.70;;
3704;SDS011;1868;48.918;9.438;2023-02-28T08:43:45;9.23;;;6.27;;
3704;SDS011;1868;48.918;9.438;2023-02-28T08:46:13;10.67;;;6.43;;
3704;SDS011;1868;48.918;9.438;2023-02-28T08:48:42;7.30;;;6.60;;
3704;SDS011;1868;48.918;9.438;2023-02-28T08:51:14;9.57;;;7.03;;
3704;SDS011;1868;48.918;9.438;2023-02-28T08:53:48;8.73;;;6.50;;
3704;SDS011;1868;48.918;9.438;2023-02-28T08:56:16;14.10;;;6.80;;
3704;SDS011;1868;48.918;9.438;2023-02-28T08:58:47;9.17;;;6.20;;
3704;SDS011;1868;48.918;9.438;2023-02-28T09:01:17;8.13;;;6.37;;
3704;SDS011;1868;48.918;9.438;2023-02-28T09:03:49;7.17;;;5.97;;
3704;SDS011;1868;48.918;9.438;2023-02-28T09:06:20;13.50;;;6.57;;
3704;SDS011;1868;48.918;9.438;2023-02-28T09:08:50;11.33;;;6.80;;
3704;SDS011;1868;48.918;9.438;2023-02-28T09:11:20;11.00;;;9.20;;
3704;SDS011;1868;48.918;9.438;2023-02-28T09:13:48;22.13;;;14.60;;
3704;SDS011;1868;48.918;9.438;2023-02-28T09:16:17;7.50;;;6.63;;
3704;SDS011;1868;48.918;9.438;2023-02-28T09:18:46;8.70;;;6.90;;
3704;SDS011;1868;48.918;9.438;2023-02-28T09:21:15;8.10;;;6.67;;
3704;SDS011;1868;48.918;9.438;2023-02-28T09:23:47;7.50;;;6.30;;
3704;SDS011;1868;48.918;9.438;2023-02-28T09:26:18;8.87;;;6.67;;
3704;SDS011;1868;48.918;9.438;2023-02-28T09:28:49;8.57;;;5.77;;
3704;SDS011;1868;48.918;9.438;2023-02-28T09:31:19;8.17;;;6.50;;
3704;SDS011;1868;48.918;9.438;2023-02-28T09:33:52;10.20;;;6.57;;
3704;SDS011;1868;48.918;9.438;2023-02-28T09:36:23;9.70;;;6.70;;
3704;SDS011;1868;48.918;9.438;2023-02-28T09:39:11;7.60;;;6.60;;
3704;SDS011;1868;48.918;9.438;2023-02-28T09:41:42;6.60;;;6.00;;
3704;SDS011;1868;48.918;9.438;2023-02-28T09:44:17;8.60;;;6.80;;
3704;SDS011;1868;48.918;9.438;2023-02-28T09:46:56;9.57;;;7.30;;
3704;SDS011;1868;48.918;9.438;2023-02-28T09:49:30;7.73;;;6.93;;
3704;SDS011;1868;48.918;9.438;2023-02-28T09:52:07;8.80;;;5.73;;
3704;SDS011;1868;48.918;9.438;2023-02-28T09:54:41;10.23;;;8.03;;
3704;SDS011;1868;48.918;9.438;2023-02-28T09:57:13;9.00;;;6.30;;
3704;SDS011;1868;48.918;9.438;2023-02-28T09:59:51;8.40;;;6.57;;
3704;SDS011;1868;48.918;9.438;2023-02-28T10:02:50;8.30;;;6.43;;
3704;SDS011;1868;48.918;9.438;2023-02-28T10:05:32;7.53;;;6.83;;
3704;SDS011;1868;48.918;9.438;2023-02-28T10:08:11;11.00;;;7.67;;
3704;SDS011;1868;48.918;9.438;2023-02-28T10:10:44;5.50;;;5.00;;
3704;SDS011;1868;48.918;9.438;2023-02-28T10:13:17;7.37;;;6.63;;
3704;SDS011;1868;48.918;9.438;2023-02-28T10:15:52;7.53;;;6.43;;
3704;SDS011;1868;48.918;9.438;2023-02-28T10:18:27;8.23;;;6.83;;
3704;SDS011;1868;48.918;9.438;2023-02-28T10:20:58;7.87;;;6.57;;
3704;SDS011;1868;48.918;9.438;2023-02-28T10:23:28;9.10;;;7.07;;
3704;SDS011;1868;48.918;9.438;2023-02-28T10:26:08;8.17;;;6.60;;
3704;SDS011;1868;48.918;9.438;2023-02-28T10:28:42;6.30;;;5.50;;
3704;SDS011;1868;48.918;9.438;2023-02-28T10:31:11;8.00;;;6.60;;
3704;SDS011;1868;48.918;9.438;2023-02-28T10:33:45;7.37;;;5.77;;
3704;SDS011;1868;48.918;9.438;2023-02-28T10:36:15;11.70;;;7.00;;
3704;SDS011;1868;48.918;9.438;2023-02-28T10:38:46;9.23;;;7.23;;
3704;SDS011;1868;48.918;9.438;2023-02-28T10:41:26;7.87;;;6.63;;
3704;SDS011;1868;48.918;9.438;2023-02-28T10:44:14;9.60;;;7.50;;
3704;SDS011;1868;48.918;9.438;2023-02-28T10:46:48;9.70;;;7.07;;
3704;SDS011;1868;48.918;9.438;2023-02-28T10:49:17;7.30;;;6.37;;
3704;SDS011;1868;48.918;9.438;2023-02-28T10:51:50;10.10;;;7.20;;
3704;SDS011;1868;48.918;9.438;2023-02-28T10:54:28;12.33;;;6.73;;
3704;SDS011;1868;48.918;9.438;2023-02-28T10:57:16;8.10;;;6.30;;
3704;SDS011;1868;48.918;9.438;2023-02-28T10:59:50;8.33;;;6.70;;
3704;SDS011;1868;48.918;9.438;2023-02-28T11:05:28;7.33;;;6.53;;
3704;SDS011;1868;48.918;9.438;2023-02-28T11:08:01;9.23;;;6.30;;
3704;SDS011;1868;48.918;9.438;2023-02-28T11:10:37;7.73;;;6.93;;
3704;SDS011;1868;48.918;9.438;2023-02-28T11:13:12;8.93;;;7.10;;
3704;SDS011;1868;48.918;9.438;2023-02-28T11:15:49;6.47;;;5.53;;
3704;SDS011;1868;48.918;9.438;2023-02-28T11:18:23;7.57;;;6.40;;
3704;SDS011;1868;48.918;9.438;2023-02-28T11:20:57;7.20;;;6.50;;
3704;SDS011;1868;48.918;9.438;2023-02-28T11:23:29;12.17;;;7.20;;
3704;SDS011;1868;48.918;9.438;2023-02-28T11:26:03;7.60;;;6.23;;
3704;SDS011;1868;48.918;9.438;2023-02-28T11:28:37;10.57;;;6.80;;
3704;SDS011;1868;48.918;9.438;2023-02-28T11:31:15;7.30;;;6.60;;
3704;SDS011;1868;48.918;9.438;2023-02-28T11:33:49;8.70;;;6.10;;
3704;SDS011;1868;48.918;9.438;2023-02-28T11:36:19;7.60;;;6.57;;
3704;SDS011;1868;48.918;9.438;2023-02-28T11:38:51;8.50;;;6.97;;
3704;SDS011;1868;48.918;9.438;2023-02-28T11:41:31;8.50;;;6.30;;
3704;SDS011;1868;48.918;9.438;2023-02-28T11:44:26;8.90;;;7.80;;
3704;SDS011;1868;48.918;9.438;2023-02-28T11:47:06;11.20;;;7.60;;
3704;SDS011;1868;48.918;9.438;2023-02-28T11:49:44;14.23;;;6.80;;
3704;SDS011;1868;48.918;9.438;2023-02-28T11:52:28;8.77;;;7.30;;
3704;SDS011;1868;48.918;9.438;2023-02-28T11:55:11;6.50;;;5.63;;
3704;SDS011;1868;48.918;9.438;2023-02-28T11:58:04;7.77;;;6.73;;
3704;SDS011;1868;48.918;9.438;2023-02-28T12:00:50;7.20;;;6.50;;
3704;SDS011;1868;48.918;9.438;2023-02-28T12:03:45;8.03;;;6.87;;
3704;SDS011;1868;48.918;9.438;2023-02-28T12:06:33;9.03;;;6.80;;
3704;SDS011;1868;48.918;9.438;2023-02-28T12:09:28;6.60;;;6.00;;
3704;SDS011;1868;48.918;9.438;2023-02-28T12:12:39;10.30;;;6.20;;
3704;SDS011;1868;48.918;9.438;2023-02-28T12:21:56;15.17;;;9.90;;
3704;SDS011;1868;48.918;9.438;2023-02-28T12:24:54;7.50;;;6.40;;
3704;SDS011;1868;48.918;9.438;2023-02-28T12:28:10;8.47;;;7.57;;
3704;SDS011;1868;48.918;9.438;2023-02-28T12:30:41;7.93;;;6.23;;
3704;SDS011;1868;48.918;9.438;2023-02-28T12:33:22;6.40;;;5.77;;
3704;SDS011;1868;48.918;9.438;2023-02-28T12:35:56;7.70;;;5.73;;
3704;SDS011;1868;48.918;9.438;2023-02-28T12:38:27;8.20;;;6.63;;
3704;SDS011;1868;48.918;9.438;2023-02-28T12:41:02;6.17;;;5.57;;
3704;SDS011;1868;48.918;9.438;2023-02-28T12:43:35;7.60;;;6.80;;
3704;SDS011;1868;48.918;9.438;2023-02-28T12:46:09;8.07;;;6.70;;
3704;SDS011;1868;48.918;9.438;2023-02-28T12:48:44;6.63;;;6.03;;
3704;SDS011;1868;48.918;9.438;2023-02-28T12:51:16;9.07;;;6.57;;
3704;SDS011;1868;48.918;9.438;2023-02-28T12:53:58;32.17;;;22.23;;
3704;SDS011;1868;48.918;9.438;2023-02-28T12:56:38;10.80;;;7.00;;
3704;SDS011;1868;48.918;9.438;2023-02-28T12:59:14;6.90;;;6.23;;
3704;SDS011;1868;48.918;9.438;2023-02-28T13:01:56;7.60;;;6.47;;
3704;SDS011;1868;48.918;9.438;2023-02-28T13:04:47;7.50;;;6.63;;
3704;SDS011;1868;48.918;9.438;2023-02-28T13:07:36;8.17;;;6.50;;
3704;SDS011;1868;48.918;9.438;2023-02-28T13:10:40;7.67;;;6.97;;
3704;SDS011;1868;48.918;9.438;2023-02-28T13:13:14;7.40;;;6.50;;
3704;SDS011;1868;48.918;9.438;2023-02-28T13:16:04;7.23;;;6.53;;
3704;SDS011;1868;48.918;9.438;2023-02-28T13:18:35;8.67;;;7.23;;
3704;SDS011;1868;48.918;9.438;2023-02-28T13:21:08;8.40;;;7.20;;
3704;SDS011;1868;48.918;9.438;2023-02-28T13:23:58;7.90;;;6.07;;
3704;SDS011;1868;48.918;9.438;2023-02-28T13:29:38;8.87;;;7.07;;
3704;SDS011;1868;48.918;9.438;2023-02-28T13:32:30;7.57;;;6.23;;
3704;SDS011;1868;48.918;9.438;2023-02-28T13:38:12;6.90;;;6.20;;
3704;SDS011;1868;48.918;9.438;2023-02-28T13:40:49;7.87;;;6.70;;
3704;SDS011;1868;48.918;9.438;2023-02-28T13:43:17;7.43;;;6.67;;
3704;SDS011;1868;48.918;9.438;2023-02-28T13:46:11;7.77;;;7.03;;
3704;SDS011;1868;48.918;9.438;2023-02-28T13:48:41;7.47;;;6.77;;
3704;SDS011;1868;48.918;9.438;2023-02-28T13:51:27;7.87;;;7.07;;
3704;SDS011;1868;48.918;9.438;2023-02-28T13:54:15;8.73;;;7.20;;
3704;SDS011;1868;48.918;9.438;2023-02-28T13:56:56;6.83;;;6.23;;
3704;SDS011;1868;48.918;9.438;2023-02-28T13:59:43;7.77;;;6.60;;
3704;SDS011;1868;48.918;9.438;2023-02-28T14:02:44;8.30;;;7.40;;
3704;SDS011;1868;48.918;9.438;2023-02-28T14:05:39;8.47;;;7.33;;
3704;SDS011;1868;48.918;9.438;2023-02-28T14:08:10;9.70;;;7.50;;
3704;SDS011;1868;48.918;9.438;2023-02-28T14:10:45;9.97;;;8.07;;
3704;SDS011;1868;48.918;9.438;2023-02-28T14:16:11;8.97;;;7.53;;
3704;SDS011;1868;48.918;9.438;2023-02-28T14:18:42;8.93;;;7.90;;
3704;SDS011;1868;48.918;9.438;2023-02-28T14:21:22;8.73;;;7.47;;
3704;SDS011;1868;48.918;9.438;2023-02-28T14:27:29;7.77;;;7.03;;
3704;SDS011;1868;48.918;9.438;2023-02-28T14:30:12;8.40;;;7.50;;
3704;SDS011;1868;48.918;9.438;2023-02-28T14:33:10;8.73;;;7.60;;
3704;SDS011;1868;48.918;9.438;2023-02-28T14:36:16;8.27;;;7.00;;
3704;SDS011;1868;48.918;9.438;2023-02-28T14:38:49;11.33;;;7.30;;
3704;SDS011;1868;48.918;9.438;2023-02-28T14:41:21;8.00;;;7.20;;
3704;SDS011;1868;48.918;9.438;2023-02-28T14:43:59;8.30;;;6.93;;
3704;SDS011;1868;48.918;9.438;2023-02-28T14:46:30;8.60;;;7.70;;
3704;SDS011;1868;48.918;9.438;2023-02-28T14:49:04;8.30;;;7.20;;
3704;SDS011;1868;48.918;9.438;2023-02-28T14:51:34;7.50;;;6.40;;
3704;SDS011;1868;48.918;9.438;2023-02-28T14:54:02;8.57;;;7.23;;
3704;SDS011;1868;48.918;9.438;2023-02-28T14:56:33;7.03;;;6.33;;
3704;SDS011;1868;48.918;9.438;2023-02-28T14:59:06;8.87;;;6.90;;
3704;SDS011;1868;48.918;9.438;2023-02-28T15:02:18;7.87;;;7.10;;
3704;SDS011;1868;48.918;9.438;2023-02-28T15:04:52;11.80;;;9.33;;
3704;SDS011;1868;48.918;9.438;2023-02-28T15:07:23;9.77;;;7.40;;
3704;SDS011;1868;48.918;9.438;2023-02-28T15:10:13;8.60;;;7.70;;
3704;SDS011;1868;48.918;9.438;2023-02-28T15:12:48;8.10;;;7.30;;
3704;SDS011;1868;48.918;9.438;2023-02-28T15:15:23;9.50;;;6.70;;
3704;SDS011;1868;48.918;9.438;2023-02-28T15:18:14;9.60;;;7.90;;
3704;SDS011;1868;48.918;9.438;2023-02-28T15:20:52;7.43;;;6.73;;
3704;SDS011;1868;48.918;9.438;2023-02-28T15:23:21;9.73;;;8.50;;
3704;SDS011;1868;48.918;9.438;2023-02-28T15:25:50;30.03;;;19.00;;
3704;SDS011;1868;48.918;9.438;2023-02-28T15:28:21;14.17;;;8.63;;
3704;SDS011;1868;48.918;9.438;2023-02-28T15:30:56;9.63;;;7.20;;
3704;SDS011;1868;48.918;9.438;2023-02-28T15:33:27;9.10;;;7.97;;
3704;SDS011;1868;48.918;9.438;2023-02-28T15:36:04;11.07;;;7.20;;
3704;SDS011;1868;48.918;9.438;2023-02-28T15:38:38;8.40;;;7.10;;
3704;SDS011;1868;48.918;9.438;2023-02-28T15:41:20;8.37;;;7.57;;
3704;SDS011;1868;48.918;9.438;2023-02-28T15:46:58;8.70;;;7.80;;
3704;SDS011;1868;48.918;9.438;2023-02-28T15:49:29;9.33;;;8.07;;
3704;SDS011;1868;48.918;9.438;2023-02-28T15:52:12;8.77;;;7.90;;
3704;SDS011;1868;48.918;9.438;2023-02-28T15:54:43;8.70;;;7.90;;
3704;SDS011;1868;48.918;9.438;2023-02-28T15:57:14;9.73;;;7.80;;
3704;SDS011;1868;48.918;9.438;2023-02-28T15:59:49;12.27;;;8.77;;
3704;SDS011;1868;48.918;9.438;2023-02-28T16:02:25;11.60;;;9.30;;
3704;SDS011;1868;48.918;9.438;2023-02-28T16:05:16;10.13;;;8.10;;
3704;SDS011;1868;48.918;9.438;2023-02-28T16:07:54;8.63;;;7.33;;
3704;SDS011;1868;48.918;9.438;2023-02-28T16:10:24;11.67;;;8.33;;
3704;SDS011;1868;48.918;9.438;2023-02-28T16:12:54;12.80;;;8.13;;
3704;SDS011;1868;48.918;9.438;2023-02-28T16:15:24;10.00;;;8.20;;
3704;SDS011;1868;48.918;9.438;2023-02-28T16:17:57;8.70;;;7.80;;
3704;SDS011;1868;48.918;9.438;2023-02-28T16:20:26;9.00;;;8.10;;
3704;SDS011;1868;48.918;9.438;2023-02-28T16:22:57;9.63;;;7.80;;
3704;SDS011;1868;48.918;9.438;2023-02-28T16:25:29;11.63;;;9.20;;
3704;SDS011;1868;48.918;9.438;2023-02-28T16:28:02;13.10;;;9.53;;